Time;durP1;ratioP1;P1;durP2;ratioP2;P2;SDS_P1;SDS_P2;PMS_P1;PMS_P2;Temp;Humidity;BMP_temperature;BMP_pressure;BME280_temperature;BME280_humidity;BME280_pressure;Samples;Min_cycle;Max_cycle;Signal;HPM_P1;HPM_P2
2023/06/03 00:00:49;;;;;;;21.60;20.50;;;;;;;;;;5076419;28;20496;-81
2023/06/03 00:03:16;;;;;;;21.30;20.10;;;;;;;;;;5075828;28;20494;-81
2023/06/03 00:05:43;;;;;;;20.50;19.50;;;;;;;;;;5075873;28;20903;-81
2023/06/03 00:08:10;;;;;;;21.07;19.97;;;;;;;;;;5076764;28;20480;-81
2023/06/03 00:10:37;;;;;;;21.70;20.50;;;;;;;;;;5076256;28;20470;-81
2023/06/03 00:13:05;;;;;;;21.20;20.00;;;;;;;;;;5076522;28;20510;-81
2023/06/03 00:15:32;;;;;;;21.83;20.30;;;;;;;;;;5075872;28;20454;-80
2023/06/03 00:18:01;;;;;;;21.87;20.57;;;;;;;;;;5076715;28;20496;-81
2023/06/03 00:20:28;;;;;;;22.23;21.03;;;;;;;;;;5075510;28;20524;-82
2023/06/03 00:22:55;;;;;;;22.70;21.40;;;;;;;;;;5075871;28;20988;-82
2023/06/03 00:25:22;;;;;;;21.60;20.50;;;;;;;;;;5076227;28;20428;-81
2023/06/03 00:27:49;;;;;;;21.97;20.77;;;;;;;;;;5075549;28;20482;-80
2023/06/03 00:30:16;;;;;;;21.50;20.30;;;;;;;;;;5075655;28;20444;-81
2023/06/03 00:32:45;;;;;;;21.27;20.10;;;;;;;;;;5076445;28;20444;-82
2023/06/03 00:35:14;;;;;;;21.90;20.60;;;;;;;;;;5075278;28;20466;-81
2023/06/03 00:37:41;;;;;;;21.20;20.03;;;;;;;;;;5075182;28;20458;-82
2023/06/03 00:40:09;;;;;;;22.00;20.80;;;;;;;;;;5075634;28;20471;-81
2023/06/03 00:42:36;;;;;;;21.60;20.40;;;;;;;;;;5075985;28;20457;-82
2023/06/03 00:45:03;;;;;;;21.43;20.33;;;;;;;;;;5075814;28;20446;-82
2023/06/03 00:47:30;;;;;;;21.43;20.33;;;;;;;;;;5075461;28;20458;-80
2023/06/03 00:49:57;;;;;;;22.13;20.63;;;;;;;;;;5074943;28;21038;-82
2023/06/03 00:52:27;;;;;;;20.70;19.60;;;;;;;;;;5076411;28;20913;-81
2023/06/03 00:54:54;;;;;;;20.57;19.47;;;;;;;;;;5075505;28;20447;-81
2023/06/03 00:57:22;;;;;;;21.03;20.03;;;;;;;;;;5077396;28;20424;-82
2023/06/03 00:59:50;;;;;;;20.90;19.90;;;;;;;;;;5078755;28;20479;-82
2023/06/03 01:02:17;;;;;;;21.53;20.43;;;;;;;;;;5077740;28;20929;-82
2023/06/03 01:04:46;;;;;;;21.63;20.53;;;;;;;;;;5077238;28;20440;-81
2023/06/03 01:07:16;;;;;;;21.63;20.43;;;;;;;;;;5077669;28;20416;-82
2023/06/03 01:09:49;;;;;;;21.10;20.00;;;;;;;;;;5077309;28;20784;-82
2023/06/03 01:12:19;;;;;;;21.87;20.60;;;;;;;;;;5078225;28;20476;-81
2023/06/03 01:14:49;;;;;;;22.20;21.10;;;;;;;;;;5076427;28;20543;-82
2023/06/03 01:17:18;;;;;;;22.37;21.20;;;;;;;;;;5076551;28;20461;-81
2023/06/03 01:19:49;;;;;;;22.63;21.10;;;;;;;;;;5076934;28;20485;-81
2023/06/03 01:22:16;;;;;;;21.20;20.10;;;;;;;;;;5077440;28;20426;-81
2023/06/03 01:24:44;;;;;;;21.80;20.67;;;;;;;;;;5076183;28;20456;-81
2023/06/03 01:27:12;;;;;;;21.80;20.60;;;;;;;;;;5075880;28;20458;-81
2023/06/03 01:29:39;;;;;;;22.40;20.83;;;;;;;;;;5075435;28;20777;-81
2023/06/03 01:32:07;;;;;;;21.10;20.00;;;;;;;;;;5076734;28;20430;-81
2023/06/03 01:34:34;;;;;;;21.10;20.10;;;;;;;;;;5076196;28;20888;-82
2023/06/03 01:37:01;;;;;;;21.00;19.90;;;;;;;;;;5075923;28;20453;-81
2023/06/03 01:39:28;;;;;;;21.93;20.73;;;;;;;;;;5076209;28;20956;-82
2023/06/03 01:41:57;;;;;;;21.70;20.60;;;;;;;;;;5075921;28;20517;-82
2023/06/03 01:44:23;;;;;;;21.17;19.97;;;;;;;;;;5075377;28;20516;-81
2023/06/03 01:46:50;;;;;;;21.80;20.43;;;;;;;;;;5075401;28;20454;-82
2023/06/03 01:49:18;;;;;;;22.30;20.90;;;;;;;;;;5075550;28;20441;-81
2023/06/03 01:51:45;;;;;;;21.90;20.70;;;;;;;;;;5076017;28;20453;-82
2023/06/03 01:54:12;;;;;;;21.97;20.87;;;;;;;;;;5075211;28;20481;-81
2023/06/03 01:56:41;;;;;;;21.50;20.40;;;;;;;;;;5074827;28;20938;-80
2023/06/03 01:59:10;;;;;;;21.83;20.63;;;;;;;;;;5075578;28;20541;-82
2023/06/03 02:01:37;;;;;;;20.30;19.30;;;;;;;;;;5074892;28;20466;-81
2023/06/03 02:04:04;;;;;;;21.30;20.20;;;;;;;;;;5074026;28;20499;-82
2023/06/03 02:06:31;;;;;;;21.27;20.07;;;;;;;;;;5073477;28;20447;-81
2023/06/03 02:08:58;;;;;;;21.60;20.27;;;;;;;;;;5074085;28;20424;-81
2023/06/03 02:11:25;;;;;;;21.97;20.87;;;;;;;;;;5073685;28;20523;-80
2023/06/03 02:13:52;;;;;;;20.80;19.80;;;;;;;;;;5073755;28;20538;-81
2023/06/03 02:16:20;;;;;;;21.07;19.90;;;;;;;;;;5076924;28;20527;-81
2023/06/03 02:18:47;;;;;;;21.27;20.17;;;;;;;;;;5077531;28;20442;-82
2023/06/03 02:21:14;;;;;;;20.87;19.77;;;;;;;;;;5076541;28;20539;-81
2023/06/03 02:23:41;;;;;;;21.37;20.27;;;;;;;;;;5077400;28;20540;-81
2023/06/03 02:26:13;;;;;;;20.97;19.77;;;;;;;;;;5076969;28;20450;-82
2023/06/03 02:28:40;;;;;;;21.10;19.83;;;;;;;;;;5077481;28;20455;-81
2023/06/03 02:31:07;;;;;;;20.57;19.37;;;;;;;;;;5076608;28;20572;-82
2023/06/03 02:33:35;;;;;;;19.63;18.63;;;;;;;;;;5077403;28;20515;-81
2023/06/03 02:36:02;;;;;;;24.90;22.30;;;;;;;;;;5076374;28;20930;-81
2023/06/03 02:38:29;;;;;;;21.40;20.20;;;;;;;;;;5077049;28;20509;-81
2023/06/03 02:40:56;;;;;;;20.90;19.80;;;;;;;;;;5076646;28;20448;-80
2023/06/03 02:43:23;;;;;;;21.00;19.90;;;;;;;;;;5077170;28;20499;-81
2023/06/03 02:45:50;;;;;;;20.60;19.50;;;;;;;;;;5076401;28;20467;-82
2023/06/03 02:48:17;;;;;;;21.37;19.90;;;;;;;;;;5076953;28;20454;-81
2023/06/03 02:50:45;;;;;;;20.93;19.63;;;;;;;;;;5077075;28;21055;-82
2023/06/03 02:53:13;;;;;;;22.40;21.30;;;;;;;;;;5090982;28;20420;-82
2023/06/03 02:55:40;;;;;;;21.80;20.50;;;;;;;;;;5097935;28;20434;-81
2023/06/03 02:58:07;;;;;;;21.60;20.17;;;;;;;;;;5096471;28;20453;-82
2023/06/03 03:00:34;;;;;;;20.60;19.40;;;;;;;;;;5081545;28;20470;-82
2023/06/03 03:03:01;;;;;;;20.90;19.43;;;;;;;;;;5081456;28;20446;-83
2023/06/03 03:05:30;;;;;;;20.53;19.33;;;;;;;;;;5080130;28;20433;-82
2023/06/03 03:07:59;;;;;;;20.90;19.63;;;;;;;;;;5080389;28;20933;-82
2023/06/03 03:10:26;;;;;;;20.80;19.70;;;;;;;;;;5080335;28;20476;-83
2023/06/03 03:12:53;;;;;;;21.00;19.90;;;;;;;;;;5080064;28;20453;-82
2023/06/03 03:15:20;;;;;;;22.00;20.50;;;;;;;;;;5078812;28;20546;-82
2023/06/03 03:17:47;;;;;;;21.50;20.40;;;;;;;;;;5076040;28;20442;-81
2023/06/03 03:20:14;;;;;;;21.30;20.10;;;;;;;;;;5075860;28;21022;-80
2023/06/03 03:22:42;;;;;;;20.00;19.00;;;;;;;;;;5077279;28;20428;-81
2023/06/03 03:25:11;;;;;;;21.47;20.27;;;;;;;;;;5078034;28;20450;-81
2023/06/03 03:27:38;;;;;;;20.70;19.70;;;;;;;;;;5074970;28;20446;-81
2023/06/03 03:30:06;;;;;;;20.70;19.60;;;;;;;;;;5075775;28;20458;-81
2023/06/03 03:32:34;;;;;;;20.77;19.73;;;;;;;;;;5076920;28;20416;-81
2023/06/03 03:35:10;;;;;;;20.63;19.63;;;;;;;;;;5076698;28;20496;-81
2023/06/03 03:37:37;;;;;;;21.87;20.57;;;;;;;;;;5075757;28;20461;-81
2023/06/03 03:40:05;;;;;;;20.67;19.57;;;;;;;;;;5076551;28;20470;-81
2023/06/03 03:42:33;;;;;;;21.80;20.70;;;;;;;;;;5075976;28;20470;-81
2023/06/03 03:45:01;;;;;;;21.33;20.03;;;;;;;;;;5078544;28;20499;-81
2023/06/03 03:47:28;;;;;;;21.00;19.90;;;;;;;;;;5076471;28;20495;-82
2023/06/03 03:49:56;;;;;;;20.17;19.17;;;;;;;;;;5076508;28;20440;-81
2023/06/03 03:52:27;;;;;;;21.27;20.17;;;;;;;;;;5076102;28;20523;-81
2023/06/03 03:54:54;;;;;;;21.30;20.20;;;;;;;;;;5075923;28;20493;-83
2023/06/03 03:57:23;;;;;;;21.13;19.93;;;;;;;;;;5075717;28;20456;-82
2023/06/03 03:59:54;;;;;;;22.23;20.93;;;;;;;;;;5076123;28;20481;-82
2023/06/03 04:02:21;;;;;;;20.93;19.83;;;;;;;;;;5076005;28;20460;-80
2023/06/03 04:04:48;;;;;;;22.10;20.63;;;;;;;;;;5074797;28;20458;-82
2023/06/03 04:07:18;;;;;;;21.40;20.30;;;;;;;;;;5075261;28;20499;-80
2023/06/03 04:09:45;;;;;;;20.90;19.80;;;;;;;;;;5075766;28;20469;-82
2023/06/03 04:12:18;;;;;;;22.43;21.13;;;;;;;;;;5075904;28;20416;-82
2023/06/03 04:14:48;;;;;;;20.93;19.83;;;;;;;;;;5075764;28;20497;-81
2023/06/03 04:17:19;;;;;;;21.50;20.23;;;;;;;;;;5075171;28;20911;-81
2023/06/03 04:19:48;;;;;;;21.97;20.77;;;;;;;;;;5074667;28;20496;-81
2023/06/03 04:22:18;;;;;;;21.43;20.23;;;;;;;;;;5075813;28;20439;-81
2023/06/03 04:24:45;;;;;;;21.30;20.00;;;;;;;;;;5075615;28;20894;-82
2023/06/03 04:27:14;;;;;;;21.20;19.90;;;;;;;;;;5075163;28;20450;-81
2023/06/03 04:29:41;;;;;;;21.33;20.20;;;;;;;;;;5075207;28;20473;-80
2023/06/03 04:32:08;;;;;;;20.67;19.57;;;;;;;;;;5075148;28;21030;-81
2023/06/03 04:34:49;;;;;;;20.73;19.60;;;;;;;;;;5075143;28;20477;-80
2023/06/03 04:37:16;;;;;;;20.33;19.23;;;;;;;;;;5074364;28;20496;-81
2023/06/03 04:39:43;;;;;;;20.90;19.70;;;;;;;;;;5074568;28;20454;-81
2023/06/03 04:42:10;;;;;;;21.20;20.10;;;;;;;;;;5074208;28;20465;-81
2023/06/03 04:44:38;;;;;;;21.43;20.03;;;;;;;;;;5076980;28;20453;-82
2023/06/03 04:47:05;;;;;;;21.30;20.10;;;;;;;;;;5075227;28;20504;-81
2023/06/03 04:49:32;;;;;;;21.57;20.37;;;;;;;;;;5077385;28;20448;-81
2023/06/03 04:52:02;;;;;;;21.47;20.13;;;;;;;;;;5075614;28;20444;-80
2023/06/03 04:54:29;;;;;;;20.83;19.50;;;;;;;;;;5075804;28;20477;-82
2023/06/03 04:56:57;;;;;;;21.20;20.00;;;;;;;;;;5075880;28;20446;-82
2023/06/03 04:59:24;;;;;;;20.50;19.40;;;;;;;;;;5076225;28;20481;-81
2023/06/03 05:01:51;;;;;;;21.33;20.07;;;;;;;;;;5075386;28;20508;-82
2023/06/03 05:04:19;;;;;;;21.17;19.87;;;;;;;;;;5075667;28;20438;-81
2023/06/03 05:06:46;;;;;;;21.07;19.87;;;;;;;;;;5074970;28;20458;-82
2023/06/03 05:09:15;;;;;;;21.30;20.20;;;;;;;;;;5074772;28;20465;-81
2023/06/03 05:11:42;;;;;;;21.00;19.70;;;;;;;;;;5075257;28;20433;-82
2023/06/03 05:14:10;;;;;;;20.43;19.33;;;;;;;;;;5075932;28;20821;-80
2023/06/03 05:16:37;;;;;;;20.87;19.73;;;;;;;;;;5074711;28;20458;-82
2023/06/03 05:19:04;;;;;;;20.90;19.60;;;;;;;;;;5074211;28;20471;-82
2023/06/03 05:21:31;;;;;;;21.27;19.87;;;;;;;;;;5075003;28;20443;-82
2023/06/03 05:23:58;;;;;;;21.03;19.67;;;;;;;;;;5074825;28;20450;-81
2023/06/03 05:26:26;;;;;;;20.20;19.10;;;;;;;;;;5074596;28;20512;-82
2023/06/03 05:28:53;;;;;;;20.90;19.70;;;;;;;;;;5074046;28;20907;-81
2023/06/03 05:31:20;;;;;;;20.60;19.30;;;;;;;;;;5074544;28;20454;-82
2023/06/03 05:33:47;;;;;;;19.90;18.80;;;;;;;;;;5074638;28;20511;-81
2023/06/03 05:36:14;;;;;;;21.13;19.93;;;;;;;;;;5074526;28;20508;-82
2023/06/03 05:38:41;;;;;;;19.63;18.50;;;;;;;;;;5076554;28;20825;-82
2023/06/03 05:41:08;;;;;;;19.97;18.87;;;;;;;;;;5074423;28;20814;-81
2023/06/03 05:43:37;;;;;;;19.93;18.80;;;;;;;;;;5074532;28;20458;-81
2023/06/03 05:46:04;;;;;;;20.13;18.73;;;;;;;;;;5073811;28;21028;-80
2023/06/03 05:48:31;;;;;;;20.50;19.40;;;;;;;;;;5074592;28;20453;-80
2023/06/03 05:50:58;;;;;;;19.50;18.50;;;;;;;;;;5076404;28;20448;-82
2023/06/03 05:53:26;;;;;;;19.70;18.60;;;;;;;;;;5078451;28;20949;-76
2023/06/03 05:55:53;;;;;;;20.23;19.03;;;;;;;;;;5076060;28;20507;-75
2023/06/03 05:58:20;;;;;;;20.33;19.23;;;;;;;;;;5076413;28;20454;-75
2023/06/03 06:00:49;;;;;;;20.83;19.73;;;;;;;;;;5075466;28;20531;-76
2023/06/03 06:03:16;;;;;;;21.10;19.90;;;;;;;;;;5076025;28;20508;-76
2023/06/03 06:05:43;;;;;;;21.43;20.03;;;;;;;;;;5075116;28;20441;-75
2023/06/03 06:08:10;;;;;;;21.10;19.90;;;;;;;;;;5076185;28;20461;-76
2023/06/03 06:10:37;;;;;;;21.07;19.97;;;;;;;;;;5075685;28;20467;-76
2023/06/03 06:13:04;;;;;;;22.27;20.63;;;;;;;;;;5075511;28;20543;-75
2023/06/03 06:15:31;;;;;;;21.60;20.20;;;;;;;;;;5075322;28;20456;-74
2023/06/03 06:17:59;;;;;;;21.83;20.53;;;;;;;;;;5075774;28;20450;-75
2023/06/03 06:20:26;;;;;;;21.47;20.27;;;;;;;;;;5075675;28;20465;-76
2023/06/03 06:22:54;;;;;;;20.60;19.50;;;;;;;;;;5075728;28;20933;-76
2023/06/03 06:25:21;;;;;;;21.27;19.97;;;;;;;;;;5074913;28;20470;-75
2023/06/03 06:27:48;;;;;;;21.60;20.17;;;;;;;;;;5075173;28;20841;-76
2023/06/03 06:30:15;;;;;;;20.47;19.23;;;;;;;;;;5075723;28;20436;-76
2023/06/03 06:32:46;;;;;;;21.73;20.07;;;;;;;;;;5075839;28;20446;-75
2023/06/03 06:35:15;;;;;;;22.37;21.10;;;;;;;;;;5075112;28;20563;-77
2023/06/03 06:37:42;;;;;;;21.43;20.23;;;;;;;;;;5073902;28;20501;-76
2023/06/03 06:40:10;;;;;;;21.33;20.13;;;;;;;;;;5077511;28;20461;-80
2023/06/03 06:42:38;;;;;;;21.97;20.60;;;;;;;;;;5076812;28;20416;-79
2023/06/03 06:45:09;;;;;;;21.33;19.87;;;;;;;;;;5077262;28;20449;-81
2023/06/03 06:47:37;;;;;;;21.77;20.57;;;;;;;;;;5076532;28;20423;-82
2023/06/03 06:50:06;;;;;;;20.93;19.57;;;;;;;;;;5076478;28;21199;-82
2023/06/03 06:52:34;;;;;;;21.83;20.57;;;;;;;;;;5076653;28;20489;-80
2023/06/03 06:55:01;;;;;;;22.43;21.13;;;;;;;;;;5077046;28;20500;-78
2023/06/03 06:57:30;;;;;;;21.83;20.30;;;;;;;;;;5076179;28;20970;-83
2023/06/03 06:59:57;;;;;;;22.67;21.27;;;;;;;;;;5070793;28;20493;-83
2023/06/03 07:02:25;;;;;;;21.40;20.20;;;;;;;;;;5056762;28;20450;-85
2023/06/03 07:04:52;;;;;;;21.93;20.37;;;;;;;;;;5057491;28;20511;-85
2023/06/03 07:07:19;;;;;;;21.40;20.17;;;;;;;;;;5056625;28;20411;-80
2023/06/03 07:09:48;;;;;;;22.17;20.40;;;;;;;;;;5059929;28;20911;-82
2023/06/03 07:12:15;;;;;;;20.70;19.50;;;;;;;;;;5083165;28;20492;-82
2023/06/03 07:14:42;;;;;;;20.63;19.53;;;;;;;;;;5088929;28;20443;-77
2023/06/03 07:17:09;;;;;;;21.27;19.97;;;;;;;;;;5080777;28;20428;-82
2023/06/03 07:19:37;;;;;;;20.87;19.70;;;;;;;;;;5077814;28;20484;-82
2023/06/03 07:22:05;;;;;;;21.67;20.37;;;;;;;;;;5079544;28;20449;-81
2023/06/03 07:24:34;;;;;;;19.80;18.70;;;;;;;;;;5077272;28;20825;-79
2023/06/03 07:27:04;;;;;;;20.50;19.40;;;;;;;;;;5077962;28;20472;-80
2023/06/03 07:29:36;;;;;;;22.07;20.67;;;;;;;;;;5097414;28;20477;-79
2023/06/03 07:32:03;;;;;;;21.03;19.90;;;;;;;;;;5095461;28;20473;-80
2023/06/03 07:34:30;;;;;;;20.00;18.90;;;;;;;;;;5094452;28;20905;-80
2023/06/03 07:37:00;;;;;;;20.80;19.63;;;;;;;;;;5058271;28;20548;-86
2023/06/03 07:39:27;;;;;;;20.80;19.60;;;;;;;;;;5056387;28;20450;-79
2023/06/03 07:41:54;;;;;;;20.23;19.13;;;;;;;;;;5057626;28;20510;-80
2023/06/03 07:44:33;;;;;;;20.40;19.20;;;;;;;;;;5057243;28;20480;-83
2023/06/03 07:47:00;;;;;;;21.40;20.03;;;;;;;;;;5057001;28;20432;-83
2023/06/03 07:49:28;;;;;;;20.50;19.30;;;;;;;;;;5055953;28;20474;-78
2023/06/03 07:51:55;;;;;;;21.03;19.83;;;;;;;;;;5055544;28;20483;-76
2023/06/03 07:54:22;;;;;;;20.53;19.43;;;;;;;;;;5055577;28;20452;-78
2023/06/03 07:56:49;;;;;;;21.53;20.23;;;;;;;;;;5054695;28;20587;-77
2023/06/03 07:59:20;;;;;;;22.23;20.87;;;;;;;;;;5054831;28;20490;-78
2023/06/03 08:01:51;;;;;;;22.13;20.83;;;;;;;;;;5055186;28;20454;-78
2023/06/03 08:04:28;;;;;;;22.00;20.70;;;;;;;;;;5055191;28;20423;-82
2023/06/03 08:06:56;;;;;;;20.67;19.50;;;;;;;;;;5055744;28;20491;-80
2023/06/03 08:09:26;;;;;;;22.13;20.83;;;;;;;;;;5055714;28;20966;-80
2023/06/03 08:11:53;;;;;;;22.17;20.90;;;;;;;;;;5057388;28;20467;-81
2023/06/03 08:14:21;;;;;;;22.17;20.90;;;;;;;;;;5074451;28;20450;-77
2023/06/03 08:16:49;;;;;;;21.73;20.30;;;;;;;;;;5074780;28;20543;-80
2023/06/03 08:19:18;;;;;;;21.70;20.40;;;;;;;;;;5076168;28;20421;-80
2023/06/03 08:21:45;;;;;;;20.77;19.63;;;;;;;;;;5075465;28;20440;-79
2023/06/03 08:24:12;;;;;;;21.80;20.50;;;;;;;;;;5075812;28;20424;-79
2023/06/03 08:26:40;;;;;;;22.13;20.73;;;;;;;;;;5075217;28;20975;-78
2023/06/03 08:29:07;;;;;;;21.67;20.23;;;;;;;;;;5075915;28;20450;-79
2023/06/03 08:31:34;;;;;;;21.07;19.87;;;;;;;;;;5075117;28;20514;-80
2023/06/03 08:34:03;;;;;;;22.53;21.33;;;;;;;;;;5075687;28;20504;-82
2023/06/03 08:36:31;;;;;;;22.10;20.83;;;;;;;;;;5074757;28;20816;-80
2023/06/03 08:38:59;;;;;;;21.90;20.70;;;;;;;;;;5075488;28;20884;-78
2023/06/03 08:41:26;;;;;;;22.70;21.20;;;;;;;;;;5073603;28;20477;-78
2023/06/03 08:44:02;;;;;;;22.80;21.30;;;;;;;;;;5075021;28;20881;-78
2023/06/03 08:46:32;;;;;;;21.00;19.80;;;;;;;;;;5074715;28;20406;-78
2023/06/03 08:49:03;;;;;;;21.80;20.60;;;;;;;;;;5075068;28;20410;-79
2023/06/03 08:51:37;;;;;;;21.57;20.37;;;;;;;;;;5074462;28;20439;-79
2023/06/03 08:54:06;;;;;;;21.70;20.50;;;;;;;;;;5074086;28;20915;-78
2023/06/03 08:56:34;;;;;;;21.37;20.17;;;;;;;;;;5073552;28;20838;-78
2023/06/03 08:59:02;;;;;;;22.43;21.13;;;;;;;;;;5076530;28;20458;-79
2023/06/03 09:01:32;;;;;;;21.60;20.50;;;;;;;;;;5074801;28;20451;-78
2023/06/03 09:03:59;;;;;;;22.90;21.60;;;;;;;;;;5073548;28;20498;-78
2023/06/03 09:06:27;;;;;;;22.63;21.37;;;;;;;;;;5073128;28;20520;-78
2023/06/03 09:08:55;;;;;;;23.17;21.77;;;;;;;;;;5074090;28;20457;-78
2023/06/03 09:11:23;;;;;;;22.13;20.97;;;;;;;;;;5073789;28;20471;-78
2023/06/03 09:13:50;;;;;;;21.20;20.10;;;;;;;;;;5073580;28;20438;-77
2023/06/03 09:16:17;;;;;;;21.40;20.30;;;;;;;;;;5073722;28;20462;-78
2023/06/03 09:18:46;;;;;;;22.23;21.03;;;;;;;;;;5075895;28;20503;-80
2023/06/03 09:21:14;;;;;;;22.20;20.97;;;;;;;;;;5075174;28;20454;-77
2023/06/03 09:23:42;;;;;;;21.00;19.90;;;;;;;;;;5073520;28;20467;-79
2023/06/03 09:26:10;;;;;;;21.20;20.00;;;;;;;;;;5075600;28;20478;-82
2023/06/03 09:28:37;;;;;;;21.67;20.37;;;;;;;;;;5076189;28;20459;-80
2023/06/03 09:31:06;;;;;;;21.53;20.23;;;;;;;;;;5076232;28;21045;-83
2023/06/03 09:33:33;;;;;;;21.90;20.70;;;;;;;;;;5076117;28;20541;-82
2023/06/03 09:36:06;;;;;;;21.80;20.60;;;;;;;;;;5075255;28;20513;-81
2023/06/03 09:38:46;;;;;;;23.00;21.70;;;;;;;;;;5074501;28;20529;-80
2023/06/03 09:41:15;;;;;;;22.47;21.10;;;;;;;;;;5075204;28;20474;-80
2023/06/03 09:43:52;;;;;;;21.90;20.60;;;;;;;;;;5074564;28;20451;-77
2023/06/03 09:46:20;;;;;;;22.60;21.30;;;;;;;;;;5072577;28;20476;-77
2023/06/03 09:48:47;;;;;;;22.10;20.83;;;;;;;;;;5073534;28;20504;-78
2023/06/03 09:51:14;;;;;;;22.50;21.20;;;;;;;;;;5073603;28;20464;-78
2023/06/03 09:53:41;;;;;;;23.10;21.80;;;;;;;;;;5074111;28;20459;-78
2023/06/03 09:56:23;;;;;;;23.17;21.80;;;;;;;;;;5075575;28;20486;-78
2023/06/03 09:58:51;;;;;;;22.77;21.27;;;;;;;;;;5074368;28;20529;-76
2023/06/03 10:01:29;;;;;;;21.77;20.47;;;;;;;;;;5074380;28;20462;-81
2023/06/03 10:03:59;;;;;;;21.60;20.40;;;;;;;;;;5075215;28;20968;-83
2023/06/03 10:06:27;;;;;;;21.90;20.70;;;;;;;;;;5073560;28;20451;-86
2023/06/03 10:08:54;;;;;;;22.00;20.70;;;;;;;;;;5075318;28;20781;-81
2023/06/03 10:11:23;;;;;;;21.53;20.33;;;;;;;;;;5075423;28;20465;-82
2023/06/03 10:14:03;;;;;;;21.20;20.00;;;;;;;;;;5074870;28;20444;-81
2023/06/03 10:16:30;;;;;;;21.10;19.90;;;;;;;;;;5076441;28;20593;-81
2023/06/03 10:18:58;;;;;;;22.10;20.90;;;;;;;;;;5074436;28;20436;-82
2023/06/03 10:21:26;;;;;;;21.43;20.23;;;;;;;;;;5072685;28;20991;-83
2023/06/03 10:23:54;;;;;;;21.47;20.27;;;;;;;;;;5073720;28;20860;-77
2023/06/03 10:26:23;;;;;;;22.20;20.90;;;;;;;;;;5074518;28;20447;-79
2023/06/03 10:28:51;;;;;;;22.00;20.70;;;;;;;;;;5073764;28;20471;-78
2023/06/03 10:31:18;;;;;;;22.57;21.30;;;;;;;;;;5074673;28;20462;-80
2023/06/03 10:33:45;;;;;;;21.93;20.73;;;;;;;;;;5076145;28;20439;-77
2023/06/03 10:36:13;;;;;;;22.40;21.00;;;;;;;;;;5074749;28;20453;-80
2023/06/03 10:38:40;;;;;;;21.50;20.30;;;;;;;;;;5078231;28;20468;-78
2023/06/03 10:41:08;;;;;;;21.90;20.70;;;;;;;;;;5077787;28;20484;-77
2023/06/03 10:43:38;;;;;;;21.40;20.10;;;;;;;;;;5078154;28;20451;-78
2023/06/03 10:46:05;;;;;;;22.33;21.03;;;;;;;;;;5078520;28;20417;-78
2023/06/03 10:48:33;;;;;;;22.00;20.70;;;;;;;;;;5077843;28;20824;-81
2023/06/03 10:51:05;;;;;;;22.40;21.10;;;;;;;;;;5076412;28;20467;-77
2023/06/03 10:53:38;;;;;;;22.00;20.70;;;;;;;;;;5075891;28;20959;-76
2023/06/03 10:56:07;;;;;;;21.77;20.57;;;;;;;;;;5075789;28;20557;-80
2023/06/03 10:58:34;;;;;;;22.30;21.00;;;;;;;;;;5077825;28;20461;-80
2023/06/03 11:01:05;;;;;;;22.57;21.17;;;;;;;;;;5078676;28;20454;-81
2023/06/03 11:03:33;;;;;;;23.17;21.33;;;;;;;;;;5078717;28;20435;-82
2023/06/03 11:06:18;;;;;;;22.47;21.27;;;;;;;;;;5077400;28;20490;-80
2023/06/03 11:08:59;;;;;;;22.70;21.33;;;;;;;;;;5078381;28;20446;-79
2023/06/03 11:11:47;;;;;;;21.37;20.17;;;;;;;;;;5075082;28;20490;-77
2023/06/03 11:14:38;;;;;;;21.53;20.33;;;;;;;;;;5075418;28;20512;-76
2023/06/03 11:17:12;;;;;;;22.13;20.93;;;;;;;;;;5074829;28;20584;-78
2023/06/03 11:19:40;;;;;;;21.57;20.27;;;;;;;;;;5074807;28;21310;-76
2023/06/03 11:22:08;;;;;;;21.87;20.67;;;;;;;;;;5074559;28;20460;-76
2023/06/03 11:24:51;;;;;;;21.63;20.33;;;;;;;;;;5074905;28;20433;-76
2023/06/03 11:27:22;;;;;;;22.47;21.07;;;;;;;;;;5076316;28;20444;-76
2023/06/03 11:29:56;;;;;;;22.23;20.93;;;;;;;;;;5075235;28;20486;-77
2023/06/03 11:32:25;;;;;;;23.60;22.30;;;;;;;;;;5077269;28;20480;-77
2023/06/03 11:34:53;;;;;;;22.60;21.20;;;;;;;;;;5075398;28;20509;-77
2023/06/03 11:37:20;;;;;;;22.73;21.43;;;;;;;;;;5074351;28;21062;-76
2023/06/03 11:40:00;;;;;;;21.83;20.43;;;;;;;;;;5074264;28;20521;-77
2023/06/03 11:42:27;;;;;;;22.77;21.37;;;;;;;;;;5075162;28;20519;-77
2023/06/03 11:44:54;;;;;;;22.90;21.60;;;;;;;;;;5074849;28;20458;-76
2023/06/03 11:47:21;;;;;;;23.23;21.40;;;;;;;;;;5073690;28;20453;-78
2023/06/03 11:49:50;;;;;;;24.13;22.50;;;;;;;;;;5074792;28;20503;-78
2023/06/03 11:52:17;;;;;;;23.07;21.60;;;;;;;;;;5074155;28;20441;-78
2023/06/03 11:54:48;;;;;;;22.20;20.90;;;;;;;;;;5074638;28;20462;-78
2023/06/03 11:57:15;;;;;;;22.47;21.07;;;;;;;;;;5074125;28;20496;-78
2023/06/03 11:59:43;;;;;;;22.30;20.90;;;;;;;;;;5074671;28;20463;-78
2023/06/03 12:02:11;;;;;;;22.03;20.73;;;;;;;;;;5074167;28;20472;-79
2023/06/03 12:04:38;;;;;;;22.53;21.23;;;;;;;;;;5074756;28;20448;-76
2023/06/03 12:07:12;;;;;;;21.57;20.30;;;;;;;;;;5074211;28;20479;-79
2023/06/03 12:09:39;;;;;;;22.33;21.03;;;;;;;;;;5074487;28;20798;-77
2023/06/03 12:12:07;;;;;;;22.50;21.30;;;;;;;;;;5074424;28;20526;-78
2023/06/03 12:14:37;;;;;;;22.30;21.10;;;;;;;;;;5074982;28;20475;-81
2023/06/03 12:17:09;;;;;;;22.33;21.03;;;;;;;;;;5076728;28;20534;-84
2023/06/03 12:19:37;;;;;;;22.00;20.77;;;;;;;;;;5057455;28;20493;-84
2023/06/03 12:22:04;;;;;;;22.37;20.97;;;;;;;;;;5057397;28;20451;-81
2023/06/03 12:24:33;;;;;;;22.67;21.47;;;;;;;;;;5062928;28;20489;-84
2023/06/03 12:27:11;;;;;;;21.93;20.73;;;;;;;;;;5056804;28;20994;-82
2023/06/03 12:29:41;;;;;;;22.17;20.87;;;;;;;;;;5057473;28;20478;-83
2023/06/03 12:32:09;;;;;;;22.00;20.80;;;;;;;;;;5057328;28;20422;-85
2023/06/03 12:34:37;;;;;;;21.47;20.23;;;;;;;;;;5055854;28;20440;-81
2023/06/03 12:37:04;;;;;;;21.57;20.37;;;;;;;;;;5056457;28;20547;-81
2023/06/03 12:39:44;;;;;;;22.30;21.10;;;;;;;;;;5054670;28;20474;-79
2023/06/03 12:42:11;;;;;;;22.07;20.87;;;;;;;;;;5063456;28;20813;-79
2023/06/03 12:44:42;;;;;;;21.80;20.60;;;;;;;;;;5074720;28;20933;-79
2023/06/03 12:47:10;;;;;;;22.23;20.77;;;;;;;;;;5074163;28;20416;-79
2023/06/03 12:49:37;;;;;;;21.00;19.80;;;;;;;;;;5075089;28;20526;-79
2023/06/03 12:52:25;;;;;;;21.10;19.80;;;;;;;;;;5074794;28;20455;-80
2023/06/03 12:54:54;;;;;;;21.63;20.33;;;;;;;;;;5068998;28;20544;-82
2023/06/03 12:57:21;;;;;;;22.03;20.63;;;;;;;;;;5074362;28;20664;-80
2023/06/03 13:00:04;;;;;;;21.13;19.83;;;;;;;;;;5074072;28;20466;-82
2023/06/03 13:02:31;;;;;;;21.87;20.57;;;;;;;;;;5074607;28;20416;-82
2023/06/03 13:04:59;;;;;;;21.70;20.40;;;;;;;;;;5075298;28;20964;-78
2023/06/03 13:07:26;;;;;;;21.90;20.70;;;;;;;;;;5077245;28;20551;-79
2023/06/03 13:09:56;;;;;;;21.97;20.47;;;;;;;;;;5073615;28;21108;-78
2023/06/03 13:12:23;;;;;;;22.33;20.80;;;;;;;;;;5073575;28;20424;-85
2023/06/03 13:14:50;;;;;;;21.97;20.73;;;;;;;;;;5075005;28;20449;-78
2023/06/03 13:17:17;;;;;;;21.80;20.60;;;;;;;;;;5073788;28;21127;-78
2023/06/03 13:19:47;;;;;;;21.90;20.60;;;;;;;;;;5074631;28;20439;-80
2023/06/03 13:22:14;;;;;;;21.57;20.27;;;;;;;;;;5074619;28;20457;-82
2023/06/03 13:24:41;;;;;;;22.37;20.77;;;;;;;;;;5075380;28;20429;-81
2023/06/03 13:27:09;;;;;;;22.40;21.00;;;;;;;;;;5072921;28;21033;-79
2023/06/03 13:29:36;;;;;;;21.63;20.33;;;;;;;;;;5071198;28;20831;-79
2023/06/03 13:32:03;;;;;;;21.60;20.40;;;;;;;;;;5074346;28;20424;-80
2023/06/03 13:34:44;;;;;;;20.60;19.40;;;;;;;;;;5074296;28;20961;-78
2023/06/03 13:37:12;;;;;;;21.70;20.50;;;;;;;;;;5072894;28;20501;-78
2023/06/03 13:39:39;;;;;;;21.67;20.37;;;;;;;;;;5074310;28;20464;-81
2023/06/03 13:42:07;;;;;;;22.10;20.90;;;;;;;;;;5075071;28;20481;-81
2023/06/03 13:44:35;;;;;;;22.60;21.30;;;;;;;;;;5075585;28;20496;-80
2023/06/03 13:47:03;;;;;;;22.53;21.20;;;;;;;;;;5075408;28;20509;-74
2023/06/03 13:49:30;;;;;;;22.13;20.83;;;;;;;;;;5071448;28;20485;-82
2023/06/03 13:51:57;;;;;;;22.80;21.40;;;;;;;;;;5075162;28;20449;-82
2023/06/03 13:54:24;;;;;;;21.67;20.47;;;;;;;;;;5075112;28;20781;-79
2023/06/03 13:56:53;;;;;;;22.50;21.10;;;;;;;;;;5075549;28;20431;-79
2023/06/03 13:59:20;;;;;;;21.93;20.63;;;;;;;;;;5073250;28;20481;-82
2023/06/03 14:01:49;;;;;;;21.97;20.67;;;;;;;;;;5075667;28;20449;-81
2023/06/03 14:04:16;;;;;;;21.70;20.40;;;;;;;;;;5077403;28;20453;-84
2023/06/03 14:06:43;;;;;;;22.27;20.97;;;;;;;;;;5074592;28;20464;-83
2023/06/03 14:09:10;;;;;;;21.33;20.13;;;;;;;;;;5075118;28;20473;-81
2023/06/03 14:11:37;;;;;;;21.70;20.40;;;;;;;;;;5076702;28;20764;-80
2023/06/03 14:14:04;;;;;;;21.97;20.67;;;;;;;;;;5078025;28;20533;-79
2023/06/03 14:16:31;;;;;;;21.23;19.93;;;;;;;;;;5077246;28;20453;-81
2023/06/03 14:18:59;;;;;;;22.10;20.80;;;;;;;;;;5076248;28;20848;-77
2023/06/03 14:21:26;;;;;;;21.67;20.47;;;;;;;;;;5077008;28;20560;-79
2023/06/03 14:23:53;;;;;;;21.67;20.47;;;;;;;;;;5078027;28;20905;-81